Time;durP1;ratioP1;P1;durP2;ratioP2;P2;SDS_P1;SDS_P2;PMS_P1;PMS_P2;Temp;Humidity;BMP_temperature;BMP_pressure;BME280_temperature;BME280_humidity;BME280_pressure;Samples;Min_cycle;Max_cycle;Signal;HPM_P1;HPM_P2
2022/08/17 00:01:55;;;;;;;21.17;19.38;;;;;;;22.16;76.28;100967.34;5053725;28;20087;-36
2022/08/17 00:04:21;;;;;;;22.48;20.33;;;;;;;22.09;76.40;100955.84;5053102;28;20117;-36
2022/08/17 00:06:48;;;;;;;20.90;19.05;;;;;;;22.09;76.68;100944.84;5053699;28;20033;-36
2022/08/17 00:09:13;;;;;;;21.13;19.13;;;;;;;22.08;76.75;100951.47;5053813;28;20045;-36
2022/08/17 00:11:42;;;;;;;22.63;20.23;;;;;;;22.02;76.72;100937.00;5053297;28;20060;-36
2022/08/17 00:14:10;;;;;;;23.35;21.05;;;;;;;22.06;76.87;100928.94;5053162;28;20028;-36
2022/08/17 00:16:38;;;;;;;22.80;20.65;;;;;;;22.05;77.17;100935.56;5053818;28;20460;-36
2022/08/17 00:19:07;;;;;;;23.55;21.10;;;;;;;21.98;77.83;100935.16;5053171;28;20075;-36
2022/08/17 00:21:35;;;;;;;23.60;20.63;;;;;;;22.00;77.06;100928.22;5053401;28;20029;-36
2022/08/17 00:24:01;;;;;;;23.35;20.73;;;;;;;21.99;77.25;100928.53;5053340;28;20075;-36
2022/08/17 00:26:28;;;;;;;22.60;20.55;;;;;;;22.04;77.40;100942.19;5052956;28;20033;-36
2022/08/17 00:28:54;;;;;;;23.35;19.92;;;;;;;21.98;77.30;100926.91;5052820;28;20068;-36
2022/08/17 00:31:20;;;;;;;23.85;21.45;;;;;;;22.03;77.09;100926.78;5052517;28;20025;-36
2022/08/17 00:33:45;;;;;;;25.33;21.60;;;;;;;21.91;77.50;100912.72;5052706;28;20111;-36
2022/08/17 00:36:13;;;;;;;23.38;21.17;;;;;;;21.84;77.84;100911.19;5052787;28;20469;-35
2022/08/17 00:38:39;;;;;;;23.90;21.58;;;;;;;21.82;78.09;100907.94;5053337;28;20039;-36
2022/08/17 00:41:08;;;;;;;24.60;22.48;;;;;;;21.82;77.88;100902.44;5053134;28;20024;-35
2022/08/17 00:43:40;;;;;;;24.42;22.23;;;;;;;21.71;78.48;100903.72;5052510;28;20033;-36
2022/08/17 00:46:13;;;;;;;22.60;20.50;;;;;;;21.82;78.14;100894.16;5052581;28;20043;-36
2022/08/17 00:48:39;;;;;;;24.13;21.58;;;;;;;21.74;78.42;100900.38;5052704;28;20037;-36
2022/08/17 00:51:22;;;;;;;22.65;20.65;;;;;;;21.76;78.47;100906.38;5053367;28;20036;-35
2022/08/17 00:54:07;;;;;;;23.17;20.95;;;;;;;21.77;78.34;100899.78;5056660;28;20056;-36
2022/08/17 00:56:41;;;;;;;22.63;20.58;;;;;;;21.78;78.44;100900.59;5056408;28;20033;-35
2022/08/17 00:59:08;;;;;;;22.90;20.80;;;;;;;21.71;78.66;100889.97;5056620;28;20029;-35
2022/08/17 01:01:35;;;;;;;22.70;20.42;;;;;;;21.77;78.27;100899.78;5056523;28;20465;-35
2022/08/17 01:04:01;;;;;;;23.05;20.75;;;;;;;21.79;78.21;100902.22;5056852;28;20482;-35
2022/08/17 01:06:27;;;;;;;23.75;21.58;;;;;;;21.67;78.69;100897.22;5056532;28;20036;-35
2022/08/17 01:08:55;;;;;;;23.17;21.05;;;;;;;21.70;78.51;100899.34;5056087;28;20041;-35
2022/08/17 01:11:21;;;;;;;23.95;21.70;;;;;;;21.64;78.56;100895.06;5056013;28;20053;-35
2022/08/17 01:13:46;;;;;;;24.02;21.73;;;;;;;21.65;78.66;100901.38;5056609;28;20029;-35
2022/08/17 01:16:19;;;;;;;23.10;21.08;;;;;;;21.69;78.23;100897.72;5056747;28;20513;-35
2022/08/17 01:18:48;;;;;;;22.85;20.38;;;;;;;21.73;78.12;100895.19;5057111;28;20032;-36
2022/08/17 01:21:25;;;;;;;22.90;20.77;;;;;;;21.60;78.58;100888.53;5056189;28;20497;-36
2022/08/17 01:23:50;;;;;;;22.75;20.45;;;;;;;21.61;78.60;100892.91;5056183;28;20040;-36
2022/08/17 01:26:16;;;;;;;22.95;20.52;;;;;;;21.59;78.88;100886.91;5056411;28;20047;-36
2022/08/17 01:28:42;;;;;;;21.08;19.13;;;;;;;21.57;78.75;100889.97;5056046;28;20048;-36
2022/08/17 01:31:08;;;;;;;23.20;20.90;;;;;;;21.57;79.03;100891.91;5056066;28;20365;-36
2022/08/17 01:33:34;;;;;;;24.30;21.98;;;;;;;21.43;79.17;100883.63;5056593;28;20154;-36
2022/08/17 01:36:00;;;;;;;26.45;20.88;;;;;;;21.43;79.52;100882.81;5055923;28;20040;-36
2022/08/17 01:38:30;;;;;;;22.30;20.23;;;;;;;21.40;79.55;100867.72;5055910;28;20025;-36
2022/08/17 01:41:00;;;;;;;24.98;22.42;;;;;;;21.33;79.89;100873.63;5056101;28;20043;-35
2022/08/17 01:43:31;;;;;;;23.30;20.90;;;;;;;21.21;80.03;100865.00;5056161;28;20041;-35
2022/08/17 01:45:58;;;;;;;23.17;20.77;;;;;;;21.37;79.46;100862.00;5056345;28;20037;-36
2022/08/17 01:48:29;;;;;;;21.77;19.58;;;;;;;21.35;79.58;100867.81;5055773;28;20094;-36
2022/08/17 01:50:55;;;;;;;21.60;19.48;;;;;;;21.49;78.88;100868.66;5056020;28;20025;-34
2022/08/17 01:53:29;;;;;;;22.33;19.77;;;;;;;21.45;78.93;100869.56;5055534;28;20052;-35
2022/08/17 01:55:58;;;;;;;19.92;18.13;;;;;;;21.58;78.34;100871.53;5056060;28;20112;-35
2022/08/17 01:58:24;;;;;;;19.50;17.42;;;;;;;21.60;78.46;100869.28;5055519;28;20028;-35
2022/08/17 02:00:52;;;;;;;21.25;19.33;;;;;;;21.64;78.04;100870.31;5055090;28;20067;-35
2022/08/17 02:03:19;;;;;;;21.23;19.10;;;;;;;21.52;78.88;100869.97;5055412;28;20039;-35
2022/08/17 02:05:47;;;;;;;23.08;19.00;;;;;;;21.56;78.53;100877.31;5055208;28;20393;-35
2022/08/17 02:08:13;;;;;;;21.83;19.83;;;;;;;21.51;78.73;100874.66;5055746;28;20132;-35
2022/08/17 02:10:39;;;;;;;21.75;19.90;;;;;;;21.49;78.91;100873.34;5055346;28;20104;-35
2022/08/17 02:13:05;;;;;;;17.23;15.68;;;;;;;21.57;77.78;100875.41;5055879;28;20051;-35
2022/08/17 02:15:31;;;;;;;19.15;17.35;;;;;;;21.52;78.41;100867.22;5054978;28;20440;-36
2022/08/17 02:17:56;;;;;;;21.98;19.98;;;;;;;21.49;78.84;100859.59;5054877;28;20083;-35
2022/08/17 02:20:21;;;;;;;22.50;20.35;;;;;;;21.40;79.37;100864.16;5055157;28;20024;-35
2022/08/17 02:22:48;;;;;;;22.80;20.55;;;;;;;21.43;78.93;100869.06;5054826;28;20032;-35
2022/08/17 02:25:17;;;;;;;23.50;21.30;;;;;;;21.33;79.59;100868.13;5054790;28;20170;-40
2022/08/17 02:27:43;;;;;;;23.85;21.30;;;;;;;21.22;79.76;100850.13;5055305;28;20071;-35
2022/08/17 02:30:11;;;;;;;24.00;21.80;;;;;;;21.26;80.14;100861.34;5087229;28;20067;-35
2022/08/17 02:32:36;;;;;;;23.60;21.33;;;;;;;21.25;79.95;100856.97;5054472;28;20021;-35
2022/08/17 02:35:04;;;;;;;24.00;21.70;;;;;;;21.16;80.27;100856.03;5055624;28;20025;-35
2022/08/17 02:37:30;;;;;;;23.48;21.25;;;;;;;21.18;80.39;100875.78;5054767;28;20048;-35
2022/08/17 02:39:57;;;;;;;24.42;22.23;;;;;;;21.16;80.79;100878.00;5055022;28;20142;-35
2022/08/17 02:42:32;;;;;;;24.20;21.83;;;;;;;21.08;81.16;100876.75;5054385;28;20099;-35
2022/08/17 02:44:59;;;;;;;25.38;22.88;;;;;;;21.01;81.95;100870.84;5054771;28;20455;-35
2022/08/17 02:47:25;;;;;;;26.23;23.48;;;;;;;20.99;81.96;100867.59;5055054;28;20112;-35
2022/08/17 02:49:51;;;;;;;25.15;22.65;;;;;;;21.07;81.74;100872.38;5054930;28;20040;-35
2022/08/17 02:52:16;;;;;;;25.58;22.88;;;;;;;21.01;81.38;100857.09;5054537;28;20032;-36
2022/08/17 02:54:41;;;;;;;24.70;22.25;;;;;;;21.02;81.79;100865.03;5055329;28;20032;-36
2022/08/17 02:57:06;;;;;;;26.33;23.92;;;;;;;21.03;81.73;100863.09;5054806;28;20032;-35
2022/08/17 02:59:32;;;;;;;28.23;25.63;;;;;;;20.85;82.59;100859.28;5054347;28;20025;-36
2022/08/17 03:01:57;;;;;;;25.10;22.80;;;;;;;20.92;82.62;100850.66;5054388;28;20079;-35
2022/08/17 03:04:22;;;;;;;25.42;23.27;;;;;;;20.83;82.83;100843.06;5054556;28;20056;-35
2022/08/17 03:06:48;;;;;;;25.98;23.67;;;;;;;20.94;82.11;100842.94;5054300;28;20033;-36
2022/08/17 03:09:15;;;;;;;23.00;20.90;;;;;;;20.90;82.44;100844.66;5054206;28;20025;-36
2022/08/17 03:11:41;;;;;;;23.55;21.25;;;;;;;20.85;82.46;100844.72;5054299;28;20049;-36
2022/08/17 03:14:07;;;;;;;24.77;22.48;;;;;;;20.80;82.59;100838.19;5054077;28;20143;-36
2022/08/17 03:16:32;;;;;;;24.75;22.60;;;;;;;20.85;82.91;100845.53;5053494;28;20116;-36
2022/08/17 03:18:58;;;;;;;24.25;22.25;;;;;;;20.78;82.77;100840.41;5054637;28;20032;-36
2022/08/17 03:21:23;;;;;;;24.35;21.83;;;;;;;20.84;81.92;100843.91;5054425;28;20128;-35
2022/08/17 03:23:49;;;;;;;24.85;22.38;;;;;;;20.79;82.25;100833.00;5054359;28;20071;-35
2022/08/17 03:26:14;;;;;;;25.67;23.27;;;;;;;20.72;83.30;100841.63;5054335;28;20457;-35
2022/08/17 03:28:39;;;;;;;24.65;22.23;;;;;;;20.77;83.31;100847.03;5054048;28;20032;-36
2022/08/17 03:31:06;;;;;;;26.08;23.75;;;;;;;20.72;81.89;100847.09;5053515;28;20113;-35
2022/08/17 03:33:32;;;;;;;24.02;21.77;;;;;;;20.76;83.31;100844.59;5054292;28;20037;-34
2022/08/17 03:35:58;;;;;;;23.98;21.88;;;;;;;20.73;82.76;100842.44;5054204;28;20390;-35
2022/08/17 03:38:24;;;;;;;23.05;20.95;;;;;;;20.76;81.67;100845.41;5053705;28;20025;-33
2022/08/17 03:40:51;;;;;;;24.20;22.00;;;;;;;20.76;83.17;100848.16;5053596;28;20491;-34
2022/08/17 03:43:19;;;;;;;25.25;22.85;;;;;;;20.63;83.90;100851.66;5053863;28;20033;-34
2022/08/17 03:56:57;;;;;;;23.77;21.67;;;;;;;20.57;83.54;100845.41;5053416;28;20400;-35
2022/08/17 03:59:23;;;;;;;22.52;20.55;;;;;;;20.59;83.60;100847.84;5053545;28;20441;-35
2022/08/17 04:01:51;;;;;;;23.88;21.42;;;;;;;20.66;83.13;100859.31;5052965;28;20083;-35
2022/08/17 04:04:17;;;;;;;25.80;23.23;;;;;;;20.53;84.09;100865.53;5052866;28;20025;-35
2022/08/17 04:06:42;;;;;;;23.98;21.48;;;;;;;20.63;83.81;100864.56;5053297;28;20033;-35
2022/08/17 04:09:08;;;;;;;25.80;23.50;;;;;;;20.62;84.28;100861.00;5053283;28;20048;-36
2022/08/17 04:11:35;;;;;;;25.65;23.35;;;;;;;20.58;84.75;100869.03;5052901;28;20067;-36
2022/08/17 04:14:01;;;;;;;26.25;23.05;;;;;;;20.57;84.92;100869.31;5052379;28;20478;-35
2022/08/17 04:16:27;;;;;;;26.00;23.38;;;;;;;20.71;84.00;100885.88;5052071;28;20061;-35
2022/08/17 04:18:52;;;;;;;25.40;22.88;;;;;;;20.64;84.24;100889.00;5053757;28;20103;-35
2022/08/17 04:21:19;;;;;;;26.10;23.70;;;;;;;20.75;84.04;100922.66;5053115;28;20029;-35
2022/08/17 04:23:45;;;;;;;24.88;22.45;;;;;;;20.72;84.42;100915.81;5052618;28;20064;-35
2022/08/17 04:26:11;;;;;;;26.00;23.50;;;;;;;20.67;85.08;100918.63;5052340;28;20219;-35
2022/08/17 04:28:36;;;;;;;26.65;23.75;;;;;;;20.71;85.06;100910.63;5052674;28;20381;-35
2022/08/17 04:31:02;;;;;;;24.42;22.13;;;;;;;20.63;85.03;100898.34;5052730;28;20037;-35
2022/08/17 04:33:29;;;;;;;24.40;22.27;;;;;;;20.64;85.47;100910.97;5052900;28;20039;-35
2022/08/17 04:36:01;;;;;;;21.27;19.30;;;;;;;20.63;85.33;100903.03;5052701;28;20025;-35
2022/08/17 04:38:29;;;;;;;24.15;21.98;;;;;;;20.59;86.15;100908.28;5052681;28;20025;-35
2022/08/17 04:43:41;;;;;;;23.80;21.58;;;;;;;20.65;85.98;100929.13;5052947;28;20043;-35
2022/08/17 04:46:18;;;;;;;22.80;20.58;;;;;;;20.65;86.17;100920.06;5053026;28;20032;-35
2022/08/17 04:48:46;;;;;;;25.17;22.88;;;;;;;20.57;86.92;100919.59;5052910;28;20025;-35
2022/08/17 04:51:15;;;;;;;22.60;20.42;;;;;;;20.59;86.78;100919.28;5052822;28;20079;-35
2022/08/17 04:53:44;;;;;;;22.13;20.13;;;;;;;20.51;86.93;100907.03;5053233;28;20032;-35
2022/08/17 04:56:11;;;;;;;21.23;19.25;;;;;;;20.65;86.26;100929.13;5052674;28;20021;-35
2022/08/17 04:58:37;;;;;;;21.60;19.45;;;;;;;20.72;86.40;100964.44;5052709;28;20075;-36
2022/08/17 05:01:03;;;;;;;20.73;18.73;;;;;;;20.82;85.73;100959.63;5052878;28;20472;-36
2022/08/17 05:03:28;;;;;;;22.08;19.90;;;;;;;20.78;85.78;100939.34;5052732;28;20116;-35
2022/08/17 05:05:54;;;;;;;20.27;18.15;;;;;;;20.86;85.44;100946.13;5053103;28;20517;-35
2022/08/17 05:08:20;;;;;;;21.30;19.17;;;;;;;20.83;85.16;100944.75;5052796;28;20063;-35
2022/08/17 05:10:47;;;;;;;21.77;19.45;;;;;;;20.75;85.70;100922.66;5053172;28;20106;-35
2022/08/17 05:13:21;;;;;;;20.58;18.63;;;;;;;20.78;85.92;100942.09;5051152;28;20049;-35
2022/08/17 05:15:51;;;;;;;21.17;19.17;;;;;;;20.71;86.45;100930.66;5052671;28;20025;-35
2022/08/17 05:18:16;;;;;;;19.63;17.33;;;;;;;20.73;85.54;100917.44;5052392;28;20029;-36
2022/08/17 05:20:42;;;;;;;21.02;19.23;;;;;;;20.72;86.36;100946.03;5051470;28;20045;-36
2022/08/17 05:23:11;;;;;;;21.08;19.23;;;;;;;20.70;86.16;100931.78;5051605;28;20033;-36
2022/08/17 05:25:39;;;;;;;20.63;18.70;;;;;;;20.74;85.93;100942.97;5052748;28;20071;-35
2022/08/17 05:28:06;;;;;;;22.38;20.45;;;;;;;20.68;86.35;100939.50;5052166;28;20091;-35
2022/08/17 05:30:33;;;;;;;20.30;18.20;;;;;;;20.79;85.91;100937.44;5052301;28;20149;-36
2022/08/17 05:33:00;;;;;;;21.55;19.20;;;;;;;20.68;86.32;100931.25;5052153;28;20037;-36
2022/08/17 05:35:27;;;;;;;21.05;19.05;;;;;;;20.73;85.88;100931.16;5052205;28;20044;-36
2022/08/17 05:37:53;;;;;;;20.73;18.77;;;;;;;20.78;86.04;100922.03;5052926;28;20093;-36
2022/08/17 05:40:20;;;;;;;19.40;17.52;;;;;;;20.85;85.29;100927.19;5056460;28;20450;-36
2022/08/17 05:42:46;;;;;;;18.48;16.73;;;;;;;20.86;84.53;100912.31;5055959;28;20033;-36
2022/08/17 05:45:14;;;;;;;18.15;16.48;;;;;;;20.90;84.39;100911.44;5055872;28;20021;-36
2022/08/17 05:47:41;;;;;;;18.63;16.95;;;;;;;20.97;84.54;100911.03;5055426;28;20033;-35
2022/08/17 05:50:08;;;;;;;18.35;16.63;;;;;;;20.94;83.74;100906.97;5055764;28;20025;-35
2022/08/17 05:53:04;;;;;;;17.48;15.82;;;;;;;21.02;84.06;100916.44;5055629;28;20068;-35
2022/08/17 05:55:57;;;;;;;18.25;16.55;;;;;;;21.00;83.97;100918.69;5088863;28;20098;-35
2022/08/17 05:58:30;;;;;;;17.13;15.43;;;;;;;20.93;84.50;100904.50;5055710;28;20357;-35
2022/08/17 06:01:07;;;;;;;15.73;14.32;;;;;;;21.05;83.88;100910.38;5055844;28;20029;-35
2022/08/17 06:03:45;;;;;;;17.05;15.32;;;;;;;21.03;83.58;100907.94;5055822;28;20029;-35
2022/08/17 06:06:23;;;;;;;15.88;14.30;;;;;;;21.15;83.42;100906.63;5055469;28;20063;-35
2022/08/17 06:09:17;;;;;;;17.30;14.93;;;;;;;21.29;82.70;100907.50;5055737;28;20457;-34
2022/08/17 06:11:49;;;;;;;15.07;13.70;;;;;;;21.32;82.59;100909.66;5055617;28;20051;-35
2022/08/17 06:14:30;;;;;;;15.43;13.93;;;;;;;21.31;81.84;100902.53;5055786;28;20529;-35
2022/08/17 06:17:03;;;;;;;14.40;13.10;;;;;;;21.33;82.13;100898.38;5056030;28;20029;-35
2022/08/17 06:19:58;;;;;;;13.70;12.40;;;;;;;21.52;81.83;100902.97;5055776;28;20017;-36
2022/08/17 06:22:31;;;;;;;13.50;12.20;;;;;;;21.67;81.41;100910.13;5055125;28;20037;-35
2022/08/17 06:25:07;;;;;;;13.88;12.55;;;;;;;21.64;81.35;100916.25;5055947;28;20033;-35
2022/08/17 06:27:38;;;;;;;12.30;11.10;;;;;;;21.78;80.54;100936.38;5055221;28;20037;-35
2022/08/17 06:30:08;;;;;;;13.80;12.32;;;;;;;21.82;80.10;100942.91;5054974;28;20021;-35
2022/08/17 06:32:37;;;;;;;13.55;12.25;;;;;;;21.79;80.65;100965.50;5054863;28;20469;-35
2022/08/17 06:35:06;;;;;;;12.68;11.60;;;;;;;21.78;79.98;100961.94;5055582;28;20102;-35
2022/08/17 06:37:40;;;;;;;12.40;11.20;;;;;;;21.81;79.74;100944.00;5054812;28;20048;-35
2022/08/17 06:40:23;;;;;;;12.30;11.10;;;;;;;21.83;79.34;100964.59;5055366;28;20127;-35
2022/08/17 06:43:06;;;;;;;14.35;12.90;;;;;;;21.73;80.21;100966.75;5054803;28;20068;-35
2022/08/17 06:45:47;;;;;;;14.32;13.02;;;;;;;21.57;80.37;100946.94;5055015;28;20109;-35
2022/08/17 06:48:41;;;;;;;13.82;12.40;;;;;;;21.54;81.15;100950.28;5054889;28;20032;-35
2022/08/17 06:51:30;;;;;;;13.18;11.90;;;;;;;21.58;80.77;100956.81;5053724;28;20032;-35
2022/08/17 06:53:58;;;;;;;13.43;12.13;;;;;;;21.58;81.01;100962.31;5054749;28;20064;-35
2022/08/17 06:56:33;;;;;;;13.95;12.65;;;;;;;21.38;81.39;100959.94;5054218;28;20175;-35
2022/08/17 06:59:00;;;;;;;14.75;12.20;;;;;;;21.53;81.08;100967.91;5054878;28;20054;-35
2022/08/17 07:01:32;;;;;;;13.82;12.43;;;;;;;21.45;81.55;100969.41;5054870;28;20025;-36
2022/08/17 07:04:14;;;;;;;13.88;12.40;;;;;;;21.55;81.04;100965.66;5054503;28;20067;-36
2022/08/17 07:09:58;;;;;;;13.48;12.05;;;;;;;21.59;80.59;100967.50;5032921;28;20127;-36
2022/08/17 07:12:30;;;;;;;14.90;12.90;;;;;;;21.47;81.02;100964.44;5031966;28;20057;-36
2022/08/17 07:15:06;;;;;;;13.98;12.77;;;;;;;21.60;80.57;100974.66;5032062;28;20037;-35
2022/08/17 07:17:32;;;;;;;;;;;;;;;21.75;80.01;100975.50;5032709;28;20121;-36
2022/08/17 07:20:04;;;;;;;14.03;12.67;;;;;;;21.65;80.52;100976.50;5032363;28;20004;-35
2022/08/17 07:22:32;;;;;;;14.60;13.10;;;;;;;21.66;80.61;100986.38;5031971;28;20507;-35
2022/08/17 07:25:07;;;;;;;13.80;12.38;;;;;;;21.63;80.43;100959.47;5032422;28;20030;-35
2022/08/17 07:27:39;;;;;;;13.32;12.10;;;;;;;21.77;80.11;100990.59;5031850;28;20473;-36
2022/08/17 07:30:07;;;;;;;13.98;12.50;;;;;;;21.76;79.71;100979.88;5031824;28;20553;-36
2022/08/17 07:32:58;;;;;;;13.30;12.18;;;;;;;21.78;79.87;100989.47;5031514;28;20083;-36
2022/08/17 07:35:42;;;;;;;13.43;12.13;;;;;;;21.83;79.85;100986.63;5032018;28;20183;-35
2022/08/17 07:38:15;;;;;;;12.77;11.63;;;;;;;21.77;79.72;100982.34;5031512;28;20033;-36
2022/08/17 07:41:03;;;;;;;18.55;12.50;;;;;;;21.88;79.44;100985.72;5031968;28;20055;-36
2022/08/17 07:43:35;;;;;;;14.20;12.73;;;;;;;21.91;79.02;100984.28;5031358;28;20033;-36
2022/08/17 07:49:06;;;;;;;13.60;12.20;;;;;;;21.83;79.34;100992.13;5053655;28;20060;-36
2022/08/17 07:51:37;;;;;;;12.55;11.55;;;;;;;21.86;79.34;101007.22;5054217;28;20369;-35
2022/08/17 07:54:21;;;;;;;12.98;11.63;;;;;;;21.83;79.42;101011.41;5070488;28;20465;-35
2022/08/17 07:57:00;;;;;;;12.82;11.63;;;;;;;21.84;79.54;101012.22;5073654;28;20059;-36
2022/08/17 07:59:34;;;;;;;12.02;10.95;;;;;;;21.93;79.11;101017.84;5053011;28;20482;-35
2022/08/17 08:02:04;;;;;;;12.25;11.15;;;;;;;21.99;78.77;101016.63;5054002;28;20056;-35
2022/08/17 08:04:33;;;;;;;13.93;12.52;;;;;;;22.02;78.80;101021.53;5072388;28;20523;-36
2022/08/17 08:07:07;;;;;;;14.32;12.98;;;;;;;22.03;78.92;101028.69;5072650;28;20422;-36
2022/08/17 08:09:38;;;;;;;13.60;12.25;;;;;;;22.09;79.24;101027.44;5073101;28;20484;-35
2022/08/17 08:12:28;;;;;;;14.02;12.20;;;;;;;22.24;78.93;101031.88;5073337;28;20048;-35
2022/08/17 08:15:18;;;;;;;13.95;12.75;;;;;;;22.30;77.78;101022.41;5073821;28;20016;-35
2022/08/17 08:17:46;;;;;;;14.57;12.43;;;;;;;22.32;78.61;101012.72;5073623;28;20040;-35
2022/08/17 08:20:12;;;;;;;15.15;13.70;;;;;;;22.19;78.19;101016.28;5073101;28;20503;-35
2022/08/17 08:23:01;;;;;;;17.48;13.45;;;;;;;22.33;78.11;101022.59;5073275;28;20036;-35
2022/08/17 08:25:42;;;;;;;14.85;13.45;;;;;;;22.44;77.86;101028.72;5072873;28;20495;-35
2022/08/17 08:28:26;;;;;;;14.52;13.27;;;;;;;22.44;77.98;101017.72;5073211;28;20025;-35
2022/08/17 08:31:18;;;;;;;16.08;14.57;;;;;;;22.52;77.64;101024.44;5073177;28;20028;-35
2022/08/17 08:33:57;;;;;;;15.32;13.18;;;;;;;22.53;77.49;101010.34;5072529;28;20185;-35
2022/08/17 08:36:38;;;;;;;16.38;14.57;;;;;;;22.60;76.79;101008.03;5072798;28;20042;-35
2022/08/17 08:39:31;;;;;;;15.50;14.10;;;;;;;22.84;76.51;101001.47;5073305;28;20077;-35
2022/08/17 08:42:16;;;;;;;15.32;13.77;;;;;;;22.84;76.45;100977.47;5073294;28;20103;-35
2022/08/17 08:44:44;;;;;;;16.48;14.40;;;;;;;22.86;76.03;100969.69;5072734;28;20055;-35
2022/08/17 08:47:21;;;;;;;16.05;14.45;;;;;;;22.86;75.72;100966.09;5073049;28;20035;-35
2022/08/17 08:50:25;;;;;;;15.93;14.32;;;;;;;22.96;75.57;100987.97;5073485;28;20017;-35
2022/08/17 08:53:11;;;;;;;16.95;14.45;;;;;;;22.93;75.93;101013.38;5050711;28;20032;-35
2022/08/17 08:55:49;;;;;;;17.00;15.35;;;;;;;22.97;76.99;101035.66;5049832;28;20052;-35
2022/08/17 08:58:22;;;;;;;17.67;16.00;;;;;;;22.95;77.41;101048.94;5050364;28;20104;-34
2022/08/17 09:00:53;;;;;;;16.67;15.07;;;;;;;22.91;76.03;101039.66;5050354;28;20044;-35
2022/08/17 09:03:24;;;;;;;18.08;16.38;;;;;;;22.82;76.06;101017.47;5049773;28;20037;-35
2022/08/17 09:06:11;;;;;;;17.55;15.95;;;;;;;23.01;75.77;101015.41;5050790;28;20033;-35
2022/08/17 09:08:48;;;;;;;16.98;15.38;;;;;;;23.06;76.21;101011.72;5050902;28;20074;-35
2022/08/17 09:11:29;;;;;;;17.98;16.27;;;;;;;23.21;74.74;100996.78;5050047;28;20124;-35
2022/08/17 09:14:06;;;;;;;17.50;15.80;;;;;;;23.23;74.37;100998.09;5052671;28;20044;-35
2022/08/17 09:16:40;;;;;;;18.13;16.35;;;;;;;23.32;73.42;101000.91;5054294;28;20029;-35
2022/08/17 09:19:28;;;;;;;17.13;15.55;;;;;;;23.38;73.36;101000.50;5055032;28;20114;-35
2022/08/17 09:22:09;;;;;;;17.15;15.57;;;;;;;23.43;72.77;101013.34;5054647;28;20035;-35
2022/08/17 09:24:42;;;;;;;17.55;15.70;;;;;;;23.55;71.66;101012.78;5054469;28;20036;-35
2022/08/17 09:27:13;;;;;;;17.80;16.10;;;;;;;23.53;71.52;101017.81;5056337;28;20041;-35
2022/08/17 09:29:47;;;;;;;17.48;15.70;;;;;;;23.48;71.73;101023.44;5057114;28;20029;-35
2022/08/17 09:32:27;;;;;;;17.88;16.15;;;;;;;23.39;72.67;101018.66;5056152;28;20448;-34
2022/08/17 09:34:59;;;;;;;18.58;16.65;;;;;;;23.35;71.75;101031.47;5056471;28;20036;-35
2022/08/17 09:37:31;;;;;;;19.27;17.35;;;;;;;23.27;72.04;101039.66;5056703;28;20029;-35
2022/08/17 09:40:08;;;;;;;18.77;16.98;;;;;;;23.22;72.98;101043.34;5056150;28;20032;-35
2022/08/17 09:42:48;;;;;;;17.27;15.77;;;;;;;23.13;72.08;101023.97;5056336;28;20120;-36
2022/08/17 09:45:19;;;;;;;17.20;15.63;;;;;;;23.23;72.34;101044.16;5056184;28;20465;-35
2022/08/17 09:47:56;;;;;;;18.67;16.85;;;;;;;23.15;72.97;101048.50;5056154;28;20031;-35
2022/08/17 09:50:29;;;;;;;16.90;15.30;;;;;;;23.08;73.66;101057.19;5055992;28;20036;-35
2022/08/17 09:52:57;;;;;;;18.00;16.20;;;;;;;23.08;73.24;101057.19;5056031;28;20104;-35
2022/08/17 09:55:47;;;;;;;17.10;15.40;;;;;;;23.09;73.79;101078.13;5056113;28;20032;-35
2022/08/17 09:58:29;;;;;;;19.25;17.45;;;;;;;22.97;74.91;101096.31;5056100;28;20377;-34
2022/08/17 10:01:30;;;;;;;19.73;16.70;;;;;;;22.84;75.51;101086.94;5056329;28;20499;-35
2022/08/17 10:04:11;;;;;;;18.55;16.75;;;;;;;22.86;77.02;101117.75;5052954;28;20090;-35
2022/08/17 10:06:53;;;;;;;18.17;16.58;;;;;;;22.75;77.88;101117.16;5055889;28;20053;-36
2022/08/17 10:09:38;;;;;;;19.00;17.10;;;;;;;22.65;79.38;101113.78;5056325;28;20025;-36
2022/08/17 10:12:31;;;;;;;18.80;16.90;;;;;;;22.56;80.45;101117.22;5056002;28;20037;-36
2022/08/17 10:15:12;;;;;;;20.08;18.08;;;;;;;22.53;80.37;101119.78;5056223;28;20071;-36
2022/08/17 10:18:26;;;;;;;19.90;17.92;;;;;;;22.46;80.50;101117.44;5055797;28;20029;-35
2022/08/17 10:26:43;;;;;;;20.02;17.98;;;;;;;22.26;85.24;101120.56;5033350;28;20044;-36
2022/08/17 10:29:08;;;;;;;21.63;19.70;;;;;;;22.02;86.27;101118.72;5033159;28;20036;-35
2022/08/17 10:32:02;;;;;;;21.23;19.40;;;;;;;22.05;85.54;101125.56;5033671;28;20034;-36
2022/08/17 10:34:33;;;;;;;20.35;18.15;;;;;;;22.03;85.42;101125.03;5033095;28;20482;-36
2022/08/17 10:37:27;;;;;;;22.08;19.95;;;;;;;21.96;86.57;101128.19;5033712;28;20034;-36
2022/08/17 10:40:20;;;;;;;21.83;19.65;;;;;;;21.87;87.36;101127.25;5033287;28;20477;-36
2022/08/17 10:42:50;;;;;;;22.95;20.60;;;;;;;21.68;89.74;101113.50;5033879;28;20037;-36
2022/08/17 10:45:32;;;;;;;22.33;20.23;;;;;;;21.74;88.43;101120.56;5033252;28;20037;-36
2022/08/17 10:48:26;;;;;;;23.40;21.38;;;;;;;21.73;89.70;101101.59;5033941;28;20474;-36
2022/08/17 10:50:54;;;;;;;23.40;21.23;;;;;;;21.59;91.94;101087.78;5033041;28;20083;-36
2022/08/17 10:53:32;;;;;;;22.13;19.73;;;;;;;21.55;92.35;101079.28;5032773;28;20029;-36
2022/08/17 10:56:12;;;;;;;23.60;21.10;;;;;;;21.49;93.69;101071.41;5033129;28;20034;-35
2022/08/17 10:58:37;;;;;;;25.75;23.00;;;;;;;21.31;94.80;101068.38;5050828;28;20489;-35
2022/08/17 11:01:03;;;;;;;23.93;21.63;;;;;;;21.47;94.85;101079.97;5054936;28;20063;-36
2022/08/17 11:03:31;;;;;;;23.42;21.25;;;;;;;21.52;95.44;101068.06;5054865;28;20272;-35
2022/08/17 11:06:29;;;;;;;23.98;21.73;;;;;;;21.57;94.45;101065.25;5055385;28;20029;-35
2022/08/17 11:09:20;;;;;;;24.08;21.98;;;;;;;21.43;96.23;101059.69;5053093;28;20029;-35
2022/08/17 11:12:07;;;;;;;24.08;21.83;;;;;;;21.47;95.28;101062.63;5054824;28;20056;-35
2022/08/17 11:14:59;;;;;;;24.25;22.15;;;;;;;21.47;95.54;101062.63;5055324;28;20039;-35
2022/08/17 11:17:52;;;;;;;24.58;22.55;;;;;;;21.48;94.48;101062.34;5054592;28;20119;-35
2022/08/17 11:20:58;;;;;;;25.17;22.67;;;;;;;21.33;95.48;101059.84;5054481;28;20036;-35
2022/08/17 11:23:27;;;;;;;24.35;22.20;;;;;;;21.23;96.78;101068.22;5032314;28;20095;-35
2022/08/17 11:25:55;;;;;;;24.15;21.95;;;;;;;21.30;96.62;101071.41;5032684;28;20095;-35
2022/08/17 11:28:33;;;;;;;26.95;24.50;;;;;;;21.24;97.76;101061.59;5032207;28;20107;-35
2022/08/17 11:31:05;;;;;;;26.48;24.02;;;;;;;21.33;97.42;101071.66;5032313;28;20497;-35
2022/08/17 11:33:31;;;;;;;25.52;23.30;;;;;;;21.29;96.45;101078.84;5031887;28;20033;-35
2022/08/17 11:35:59;;;;;;;25.35;22.83;;;;;;;21.36;96.73;101081.22;5031561;28;20148;-35
2022/08/17 11:38:35;;;;;;;26.10;23.60;;;;;;;21.37;97.69;101087.53;5031874;28;20038;-35
2022/08/17 11:41:26;;;;;;;27.80;25.30;;;;;;;21.37;97.30;101091.09;5031730;28;20128;-35
2022/08/17 11:44:06;;;;;;;25.30;22.90;;;;;;;21.36;96.08;101106.00;5032193;28;20038;-36
2022/08/17 11:52:46;;;;;;;24.23;22.13;;;;;;;21.24;96.13;101117.41;5032549;28;20041;-36
2022/08/17 11:55:34;;;;;;;25.02;22.70;;;;;;;21.26;96.18;101120.66;5031699;28;20034;-35
2022/08/17 11:58:24;;;;;;;24.42;22.08;;;;;;;21.15;96.75;101132.94;5048644;28;20485;-36
2022/08/17 12:01:05;;;;;;;23.80;21.50;;;;;;;21.14;97.05;101134.03;5053665;28;20033;-36
2022/08/17 12:03:31;;;;;;;23.95;21.70;;;;;;;21.19;97.14;101131.22;5054246;28;20090;-36
2022/08/17 12:06:10;;;;;;;23.20;21.23;;;;;;;21.23;97.75;101151.53;5054037;28;20436;-36
2022/08/17 12:08:42;;;;;;;25.17;22.70;;;;;;;21.20;97.39;101151.28;5053663;28;20025;-36